Time;durP1;ratioP1;P1;durP2;ratioP2;P2;SDS_P1;SDS_P2;PMS_P1;PMS_P2;Temp;Humidity;BMP_temperature;BMP_pressure;BME280_temperature;BME280_humidity;BME280_pressure;Samples;Min_cycle;Max_cycle;Signal;HPM_P1;HPM_P2
2021/08/17 00:00:49;;;;;;;;;;;;;;;21.34;47.50;101922.84;1589419;30;152650;-52
2021/08/17 00:02:22;;;;;;;;;;;;;;;21.39;47.76;101929.28;1587940;38;151921;-53
2021/08/17 00:03:54;;;;;;;;;;;;;;;21.41;47.52;101929.81;1586936;38;151902;-52
2021/08/17 00:05:26;;;;;;;;;;;;;;;21.41;47.95;101929.81;1588630;38;152093;-52
2021/08/17 00:06:59;;;;;;;;;;;;;;;21.40;48.11;101922.50;1588446;38;152134;-52
2021/08/17 00:08:31;;;;;;;;;;;;;;;21.41;47.79;101924.19;1588344;38;152075;-52
2021/08/17 00:10:05;;;;;;;;;;;;;;;21.43;48.05;101924.75;1588943;30;151833;-53
2021/08/17 00:11:37;;;;;;;;;;;;;;;21.42;48.32;101922.22;1591156;30;151853;-52
2021/08/17 00:13:10;;;;;;;;;;;;;;;21.43;48.47;101927.56;1588080;38;152882;-52
2021/08/17 00:14:42;;;;;;;;;;;;;;;21.42;48.39;101930.66;1586864;38;152898;-53
2021/08/17 00:16:14;;;;;;;;;;;;;;;21.42;48.11;101934.31;1587303;38;152893;-54
2021/08/17 00:17:47;;;;;;;;;;;;;;;21.42;48.52;101931.50;1588719;38;154107;-53
2021/08/17 00:19:20;;;;;;;;;;;;;;;21.42;48.70;101934.31;1588182;38;153626;-53
2021/08/17 00:20:54;;;;;;;;;;;;;;;21.43;48.49;101927.56;1586888;31;153627;-53
2021/08/17 00:22:26;;;;;;;;;;;;;;;21.44;48.39;101926.41;1588531;38;153644;-53
2021/08/17 00:23:59;;;;;;;;;;;;;;;21.43;48.23;101921.94;1587112;30;153599;-53
2021/08/17 00:25:32;;;;;;;;;;;;;;;21.45;48.81;101918.81;1585525;38;153901;-53
2021/08/17 00:27:04;;;;;;;;;;;;;;;21.44;48.75;101925.59;1588464;38;152438;-53
2021/08/17 00:28:38;;;;;;;;;;;;;;;21.44;48.82;101912.34;1588967;30;153728;-53
2021/08/17 00:30:11;;;;;;;;;;;;;;;21.44;48.56;101917.97;1589351;30;152974;-53
2021/08/17 00:31:44;;;;;;;;;;;;;;;21.44;48.51;101915.16;1589074;38;152988;-53
2021/08/17 00:33:16;;;;;;;;;;;;;;;21.44;48.82;101909.53;1591384;38;153768;-52
2021/08/17 00:34:48;;;;;;;;;;;;;;;21.46;48.47;101914.88;1587072;30;154037;-53
2021/08/17 00:36:20;;;;;;;;;;;;;;;21.45;48.68;101911.22;1587705;38;153904;-53
2021/08/17 00:37:53;;;;;;;;;;;;;;;21.45;48.99;101914.03;1589405;38;153863;-54
2021/08/17 00:39:26;;;;;;;;;;;;;;;21.45;48.77;101908.41;1588353;30;154082;-53
2021/08/17 00:40:58;;;;;;;;;;;;;;;21.46;49.05;101917.69;1587422;38;153858;-53
2021/08/17 00:42:32;;;;;;;;;;;;;;;21.45;48.66;101908.41;1587241;30;154285;-53
2021/08/17 00:44:05;;;;;;;;;;;;;;;21.45;48.76;101907.56;1587726;38;154465;-53
2021/08/17 00:45:37;;;;;;;;;;;;;;;21.46;48.60;101903.63;1587886;38;154362;-53
2021/08/17 00:47:12;;;;;;;;;;;;;;;21.45;48.93;101908.41;1587196;38;154184;-54
2021/08/17 00:48:44;;;;;;;;;;;;;;;21.45;48.67;101908.41;1587135;38;154342;-53
2021/08/17 00:50:17;;;;;;;;;;;;;;;21.46;48.98;101898.03;1588668;38;153423;-53
2021/08/17 00:51:51;;;;;;;;;;;;;;;21.45;48.96;101901.94;1588351;38;152518;-53
2021/08/17 00:53:23;;;;;;;;;;;;;;;21.45;49.19;101904.75;1589095;38;153586;-54
2021/08/17 00:54:55;;;;;;;;;;;;;;;21.46;48.99;101912.06;1587084;38;153657;-53
2021/08/17 00:56:28;;;;;;;;;;;;;;;21.46;49.25;101909.25;1590958;38;153554;-52
2021/08/17 00:58:00;;;;;;;;;;;;;;;21.46;49.12;101909.25;1588203;38;152706;-53
2021/08/17 00:59:32;;;;;;;;;;;;;;;21.46;49.00;101900.84;1589364;38;151883;-53
2021/08/17 01:01:05;;;;;;;;;;;;;;;21.46;49.04;101898.88;1589096;30;152019;-52
2021/08/17 01:02:38;;;;;;;;;;;;;;;21.45;49.22;101902.78;1588678;38;151762;-53
2021/08/17 01:04:10;;;;;;;;;;;;;;;21.45;49.15;101900.00;1588301;38;152201;-54
2021/08/17 01:05:42;;;;;;;;;;;;;;;21.45;48.78;101893.53;1587499;38;151924;-53
2021/08/17 01:07:15;;;;;;;;;;;;;;;21.45;49.10;101885.94;1587750;30;154049;-53
2021/08/17 01:08:48;;;;;;;;;;;;;;;21.45;48.97;101902.78;1590320;30;152015;-53
2021/08/17 01:10:21;;;;;;;;;;;;;;;21.44;48.97;101884.25;1587730;30;151996;-53
2021/08/17 01:11:53;;;;;;;;;;;;;;;21.44;49.27;101887.06;1589148;38;152145;-53
2021/08/17 01:13:28;;;;;;;;;;;;;;;21.46;49.12;101889.59;1588592;38;152194;-53
2021/08/17 01:15:01;;;;;;;;;;;;;;;21.45;49.17;101885.09;1589883;30;152012;-54
2021/08/17 01:16:33;;;;;;;;;;;;;;;21.44;49.36;101889.06;1587648;38;151922;-53
2021/08/17 01:18:07;;;;;;;;;;;;;;;21.44;49.11;101889.88;1591692;30;152111;-53
2021/08/17 01:19:39;;;;;;;;;;;;;;;21.44;49.23;101894.69;1589169;38;153122;-53
2021/08/17 01:21:11;;;;;;;;;;;;;;;21.44;49.50;101889.06;1587759;38;154025;-53
2021/08/17 01:22:45;;;;;;;;;;;;;;;21.44;49.57;101889.88;1588389;38;153699;-53
2021/08/17 01:24:17;;;;;;;;;;;;;;;21.45;49.19;101890.72;1589167;38;153294;-53
2021/08/17 01:25:49;;;;;;;;;;;;;;;21.43;49.14;101885.41;1587818;38;153669;-53
2021/08/17 01:27:22;;;;;;;;;;;;;;;21.43;49.17;101890.19;1589200;38;151963;-53
2021/08/17 01:28:54;;;;;;;;;;;;;;;21.43;49.29;101893.84;1587242;38;153779;-53
2021/08/17 01:30:26;;;;;;;;;;;;;;;21.43;49.31;101893.84;1589530;30;153603;-53
2021/08/17 01:31:59;;;;;;;;;;;;;;;21.44;49.60;101894.69;1587688;30;152749;-53
2021/08/17 01:33:31;;;;;;;;;;;;;;;21.44;49.50;101886.25;1588669;38;153390;-57
2021/08/17 01:35:04;;;;;;;;;;;;;;;21.44;49.22;101884.25;1587789;38;153064;-53
2021/08/17 01:36:36;;;;;;;;;;;;;;;21.43;49.79;101888.22;1587390;30;153410;-53
2021/08/17 01:38:08;;;;;;;;;;;;;;;21.43;49.59;101881.75;1588149;38;153589;-54
2021/08/17 01:39:40;;;;;;;;;;;;;;;21.42;49.68;101878.09;1591446;38;153025;-53
2021/08/17 01:41:12;;;;;;;;;;;;;;;21.44;49.80;101883.44;1588146;38;153292;-53
2021/08/17 01:42:46;;;;;;;;;;;;;;;21.44;49.36;101883.44;1588971;38;153571;-53
2021/08/17 01:44:18;;;;;;;;;;;;;;;21.43;49.82;101882.59;1587781;38;154315;-53
2021/08/17 01:45:54;;;;;;;;;;;;;;;21.44;49.36;101884.25;1588499;38;154339;-53
2021/08/17 01:47:29;;;;;;;;;;;;;;;21.42;49.90;101886.53;1588221;38;154730;-52
2021/08/17 01:49:01;;;;;;;;;;;;;;;21.43;49.55;101887.38;1588057;38;154792;-53
2021/08/17 01:50:33;;;;;;;;;;;;;;;21.43;50.04;101882.59;1588502;38;153612;-53
2021/08/17 01:52:05;;;;;;;;;;;;;;;21.42;49.87;101880.91;1587582;38;153763;-53
2021/08/17 01:53:38;;;;;;;;;;;;;;;21.43;50.05;101881.75;1586753;38;154272;-53
2021/08/17 01:55:10;;;;;;;;;;;;;;;21.41;50.12;101887.66;1587837;38;153876;-53
2021/08/17 01:56:44;;;;;;;;;;;;;;;21.41;49.97;101884.84;1587895;38;153468;-53
2021/08/17 01:58:17;;;;;;;;;;;;;;;21.41;49.82;101881.19;1588834;38;154307;-53
2021/08/17 01:59:50;;;;;;;;;;;;;;;21.41;50.16;101881.19;1589701;38;153518;-53
2021/08/17 02:01:23;;;;;;;;;;;;;;;21.41;49.61;101872.75;1590146;38;153558;-53
2021/08/17 02:02:56;;;;;;;;;;;;;;;21.41;49.81;101884.84;1587797;30;152526;-53
2021/08/17 02:04:30;;;;;;;;;;;;;;;21.40;50.11;101883.16;1588192;30;153339;-53
2021/08/17 02:06:03;;;;;;;;;;;;;;;21.40;50.01;101887.94;1589440;38;152380;-53
2021/08/17 02:07:35;;;;;;;;;;;;;;;21.40;50.00;101880.34;1588034;30;152113;-53
2021/08/17 02:09:07;;;;;;;;;;;;;;;21.40;49.84;101877.53;1586007;38;152765;-52
2021/08/17 02:10:40;;;;;;;;;;;;;;;21.41;49.78;101875.56;1588554;38;151937;-53
2021/08/17 02:12:12;;;;;;;;;;;;;;;21.40;49.74;101871.91;1588745;38;153614;-53
2021/08/17 02:13:44;;;;;;;;;;;;;;;21.40;49.84;101868.25;1588862;38;152413;-54
2021/08/17 02:15:16;;;;;;;;;;;;;;;21.37;49.84;101864.06;1589326;38;152174;-54
2021/08/17 02:16:48;;;;;;;;;;;;;;;21.40;50.14;101859.81;1589809;30;152116;-52
2021/08/17 02:18:20;;;;;;;;;;;;;;;21.40;50.22;101868.25;1589227;38;152360;-53
2021/08/17 02:19:52;;;;;;;;;;;;;;;21.39;49.77;101864.63;1589397;38;152011;-53
2021/08/17 02:21:24;;;;;;;;;;;;;;;21.39;50.23;101859.00;1590258;30;152139;-53
2021/08/17 02:22:56;;;;;;;;;;;;;;;21.39;50.10;101861.81;1589025;38;151990;-53
2021/08/17 02:24:28;;;;;;;;;;;;;;;21.37;49.88;101858.44;1590563;38;152276;-53
2021/08/17 02:26:00;;;;;;;;;;;;;;;21.39;50.25;101859.00;1588602;38;152962;-53
2021/08/17 02:27:36;;;;;;;;;;;;;;;21.39;50.09;101859.00;1588676;30;153698;-53
2021/08/17 02:29:08;;;;;;;;;;;;;;;21.36;50.05;101867.16;1588150;38;153779;-53
2021/08/17 02:30:40;;;;;;;;;;;;;;;21.37;50.21;101858.44;1588726;38;153730;-53
2021/08/17 02:32:12;;;;;;;;;;;;;;;21.38;50.28;101862.94;1588545;38;152746;-53
2021/08/17 02:33:44;;;;;;;;;;;;;;;21.38;50.20;101868.56;1589061;38;153076;-54
2021/08/17 02:35:16;;;;;;;;;;;;;;;21.37;50.34;101858.44;1588619;38;153925;-54
2021/08/17 02:36:48;;;;;;;;;;;;;;;21.37;50.57;101866.88;1587525;30;153681;-54
2021/08/17 02:38:20;;;;;;;;;;;;;;;21.38;50.51;101871.38;1587641;30;153385;-53
2021/08/17 02:39:53;;;;;;;;;;;;;;;21.37;50.16;101866.03;1587367;38;153257;-52
2021/08/17 02:41:25;;;;;;;;;;;;;;;21.35;50.25;101866.31;1589328;38;152923;-53
2021/08/17 02:42:57;;;;;;;;;;;;;;;21.37;50.12;101868.84;1589050;38;152986;-53
2021/08/17 02:44:29;;;;;;;;;;;;;;;21.36;50.12;101868.00;1589538;38;153085;-53
2021/08/17 02:46:01;;;;;;;;;;;;;;;21.36;50.56;101870.81;1591403;38;153021;-53
2021/08/17 02:47:34;;;;;;;;;;;;;;;21.35;50.49;101869.13;1588303;38;153576;-53
2021/08/17 02:49:06;;;;;;;;;;;;;;;21.34;50.51;101864.66;1588720;38;153698;-53
2021/08/17 02:50:38;;;;;;;;;;;;;;;21.35;50.26;101863.50;1589365;38;155316;-54
2021/08/17 02:52:10;;;;;;;;;;;;;;;21.34;50.26;101855.38;1590402;30;153501;-53
2021/08/17 02:53:42;;;;;;;;;;;;;;;21.34;50.14;101859.03;1588716;38;154408;-53
2021/08/17 02:55:15;;;;;;;;;;;;;;;21.32;50.20;101858.47;1587285;38;154414;-52
2021/08/17 02:56:47;;;;;;;;;;;;;;;21.31;50.46;101845.53;1589368;38;154260;-53
2021/08/17 02:58:19;;;;;;;;;;;;;;;21.33;50.32;101848.06;1589056;38;154473;-53
2021/08/17 02:59:51;;;;;;;;;;;;;;;21.31;50.45;101851.16;1588944;38;153823;-53
2021/08/17 03:01:23;;;;;;;;;;;;;;;21.32;50.40;101847.22;1589809;38;154773;-53
2021/08/17 03:02:55;;;;;;;;;;;;;;;21.32;50.70;101855.66;1587819;38;153305;-54
2021/08/17 03:04:28;;;;;;;;;;;;;;;21.31;50.80;101856.78;1588542;38;154344;-53
2021/08/17 03:06:01;;;;;;;;;;;;;;;21.32;50.50;101850.03;1588841;30;154233;-54
2021/08/17 03:07:33;;;;;;;;;;;;;;;21.31;50.84;101853.97;1591141;30;154314;-54
2021/08/17 03:09:05;;;;;;;;;;;;;;;21.31;50.38;101851.16;1586950;38;152219;-53
2021/08/17 03:10:38;;;;;;;;;;;;;;;21.32;50.36;101840.75;1590543;30;152038;-53
2021/08/17 03:12:10;;;;;;;;;;;;;;;21.30;50.74;101841.06;1590462;30;151921;-53
2021/08/17 03:13:42;;;;;;;;;;;;;;;21.32;50.44;101846.38;1588662;38;152159;-53
2021/08/17 03:15:15;;;;;;;;;;;;;;;21.30;50.69;101846.69;1589085;30;152026;-53
2021/08/17 03:16:47;;;;;;;;;;;;;;;21.30;50.54;101841.06;1588660;38;151982;-53
2021/08/17 03:18:19;;;;;;;;;;;;;;;21.30;50.80;101843.88;1587670;38;152598;-53
2021/08/17 03:19:51;;;;;;;;;;;;;;;21.29;50.73;101836.56;1589377;38;152286;-54
2021/08/17 03:21:24;;;;;;;;;;;;;;;21.28;50.68;101838.53;1588278;38;152652;-53
2021/08/17 03:22:56;;;;;;;;;;;;;;;21.28;50.70;101838.53;1590248;30;152103;-53
2021/08/17 03:24:28;;;;;;;;;;;;;;;21.27;50.54;101831.25;1589379;30;152049;-53
2021/08/17 03:26:00;;;;;;;;;;;;;;;21.28;50.78;101834.88;1588478;38;152047;-54
2021/08/17 03:27:32;;;;;;;;;;;;;;;21.27;50.88;101836.84;1588528;38;151909;-53
2021/08/17 03:29:04;;;;;;;;;;;;;;;21.27;50.44;101831.25;1590958;38;152028;-53
2021/08/17 03:30:37;;;;;;;;;;;;;;;21.27;50.45;101834.03;1589560;38;153624;-53
2021/08/17 03:32:09;;;;;;;;;;;;;;;21.27;50.79;101833.22;1588221;30;154139;-53
2021/08/17 03:33:41;;;;;;;;;;;;;;;21.27;51.00;101834.03;1588194;38;153658;-53
2021/08/17 03:35:13;;;;;;;;;;;;;;;21.26;50.71;101832.38;1588273;38;153397;-57
2021/08/17 03:36:45;;;;;;;;;;;;;;;21.27;50.58;101827.59;1587226;38;153003;-52
2021/08/17 03:38:17;;;;;;;;;;;;;;;21.26;51.00;101828.72;1591042;30;154177;-53
2021/08/17 03:39:50;;;;;;;;;;;;;;;21.26;50.79;101829.56;1589249;38;153055;-53
2021/08/17 03:41:22;;;;;;;;;;;;;;;21.27;50.58;101828.44;1590348;30;153062;-53
2021/08/17 03:42:54;;;;;;;;;;;;;;;21.25;50.55;101832.69;1588324;38;153903;-53
2021/08/17 03:44:26;;;;;;;;;;;;;;;21.26;50.61;101834.34;1586868;30;153817;-53
2021/08/17 03:45:58;;;;;;;;;;;;;;;21.26;50.99;101826.75;1589438;38;153024;-53
2021/08/17 03:47:31;;;;;;;;;;;;;;;21.23;50.92;101834.91;1589488;30;153876;-53
2021/08/17 03:49:03;;;;;;;;;;;;;;;21.24;50.70;101825.38;1590211;38;153106;-53
2021/08/17 03:50:35;;;;;;;;;;;;;;;21.23;50.67;101826.50;1592153;38;153668;-53
2021/08/17 03:52:07;;;;;;;;;;;;;;;21.23;51.09;101826.50;1587359;38;154308;-53
2021/08/17 03:53:39;;;;;;;;;;;;;;;21.23;50.73;101821.72;1589070;38;153658;-53
2021/08/17 03:55:12;;;;;;;;;;;;;;;21.21;50.78;101820.34;1589704;38;154713;-53
2021/08/17 03:56:44;;;;;;;;;;;;;;;21.21;51.03;101820.34;1587263;38;154115;-53
2021/08/17 03:58:16;;;;;;;;;;;;;;;21.22;51.03;101819.19;1586991;38;154331;-53
2021/08/17 03:59:48;;;;;;;;;;;;;;;21.19;50.97;101820.63;1587493;30;154299;-53
2021/08/17 04:01:21;;;;;;;;;;;;;;;21.21;51.19;101803.47;1589043;30;153517;-53
2021/08/17 04:02:54;;;;;;;;;;;;;;;21.21;51.33;101806.28;1589494;38;154678;-53
2021/08/17 04:04:26;;;;;;;;;;;;;;;21.19;51.18;101803.75;1589419;30;154528;-53
2021/08/17 04:05:58;;;;;;;;;;;;;;;21.21;50.98;101812.72;1589364;30;153501;-53
2021/08/17 04:07:30;;;;;;;;;;;;;;;21.21;51.32;101807.09;1588982;38;154029;-53
2021/08/17 04:09:02;;;;;;;;;;;;;;;21.21;51.03;101811.91;1589728;38;154233;-53
2021/08/17 04:10:34;;;;;;;;;;;;;;;21.20;51.13;101805.44;1587564;38;154161;-53
2021/08/17 04:12:07;;;;;;;;;;;;;;;21.20;51.22;101813.03;1587104;38;154574;-53
2021/08/17 04:13:40;;;;;;;;;;;;;;;21.20;51.50;101804.59;1590630;38;154256;-53
2021/08/17 04:15:12;;;;;;;;;;;;;;;21.17;51.56;101806.00;1588963;38;152018;-53
2021/08/17 04:16:44;;;;;;;;;;;;;;;21.19;51.46;101805.72;1586078;38;152336;-53
2021/08/17 04:18:16;;;;;;;;;;;;;;;21.20;51.32;101801.78;1588677;38;152172;-53
2021/08/17 04:19:48;;;;;;;;;;;;;;;21.19;51.26;101802.91;1589318;38;151982;-54
2021/08/17 04:21:20;;;;;;;;;;;;;;;21.19;51.06;101802.91;1589655;38;152063;-52
2021/08/17 04:22:52;;;;;;;;;;;;;;;21.18;51.07;101807.69;1588285;38;151979;-53
2021/08/17 04:24:25;;;;;;;;;;;;;;;21.18;51.12;101806.84;1588723;38;152417;-53
2021/08/17 04:25:58;;;;;;;;;;;;;;;21.17;51.17;101810.78;1589289;38;152202;-52
2021/08/17 04:27:30;;;;;;;;;;;;;;;21.16;51.24;101804.34;1587959;38;152031;-52
2021/08/17 04:29:02;;;;;;;;;;;;;;;21.17;51.54;101805.16;1589193;38;152044;-53
2021/08/17 04:30:34;;;;;;;;;;;;;;;21.16;51.53;101798.72;1589037;38;152658;-53
2021/08/17 04:32:06;;;;;;;;;;;;;;;21.17;51.65;101788.31;1588146;38;152008;-53
2021/08/17 04:33:39;;;;;;;;;;;;;;;21.18;51.44;101784.38;1590515;38;152277;-54
2021/08/17 04:35:11;;;;;;;;;;;;;;;21.16;51.55;101787.50;1591297;38;151955;-53
2021/08/17 04:36:43;;;;;;;;;;;;;;;21.17;51.46;101788.31;1590331;30;156493;-53
2021/08/17 04:38:15;;;;;;;;;;;;;;;21.15;51.75;101793.41;1589493;38;154216;-53
2021/08/17 04:39:47;;;;;;;;;;;;;;;21.13;51.72;101793.69;1587259;38;152861;-53
2021/08/17 04:41:19;;;;;;;;;;;;;;;21.16;51.61;101795.06;1589145;38;153050;-53
2021/08/17 04:42:51;;;;;;;;;;;;;;;21.15;51.37;101797.03;1588555;38;153037;-53
2021/08/17 04:44:24;;;;;;;;;;;;;;;21.14;51.36;101792.56;1589645;38;153457;-53
2021/08/17 04:45:56;;;;;;;;;;;;;;;21.15;51.77;101790.59;1590383;30;153651;-53
2021/08/17 04:47:28;;;;;;;;;;;;;;;21.14;51.75;101798.16;1587197;38;154520;-53
2021/08/17 04:49:00;;;;;;;;;;;;;;;21.15;51.37;101790.59;1588398;38;153676;-53
2021/08/17 04:50:32;;;;;;;;;;;;;;;21.13;51.42;101799.28;1588790;38;153713;-53
2021/08/17 04:52:04;;;;;;;;;;;;;;;21.14;51.83;101800.97;1588355;38;153415;-53
2021/08/17 04:53:37;;;;;;;;;;;;;;;21.14;51.67;101800.13;1588897;38;153533;-53
2021/08/17 04:55:10;;;;;;;;;;;;;;;21.13;51.78;101790.88;1589768;38;154217;-54
2021/08/17 04:56:42;;;;;;;;;;;;;;;21.12;51.85;101782.72;1591909;38;153421;-53
2021/08/17 04:58:14;;;;;;;;;;;;;;;21.09;51.76;101786.94;1587816;38;154589;-53
2021/08/17 04:59:46;;;;;;;;;;;;;;;21.11;51.99;101795.06;1588176;38;153433;-53
2021/08/17 05:01:18;;;;;;;;;;;;;;;21.12;51.72;101786.34;1587399;38;153497;-53
2021/08/17 05:02:51;;;;;;;;;;;;;;;21.12;51.99;101797.56;1589697;38;153705;-53
2021/08/17 05:04:23;;;;;;;;;;;;;;;21.13;51.64;101788.06;1590218;30;154172;-53
2021/08/17 05:05:55;;;;;;;;;;;;;;;21.11;51.99;101786.66;1588469;38;154313;-52
2021/08/17 05:07:27;;;;;;;;;;;;;;;21.13;51.88;101790.03;1589830;38;154708;-53
2021/08/17 05:08:59;;;;;;;;;;;;;;;21.12;51.94;101780.72;1588298;38;153872;-52
2021/08/17 05:10:31;;;;;;;;;;;;;;;21.10;51.88;101785.81;1588827;38;154404;-53
2021/08/17 05:12:04;;;;;;;;;;;;;;;21.10;52.18;101774.56;1590077;38;153666;-54
2021/08/17 05:13:36;;;;;;;;;;;;;;;21.11;52.33;101769.78;1588510;38;153516;-53
2021/08/17 05:15:09;;;;;;;;;;;;;;;21.13;52.58;101771.19;1589021;38;153429;-53
2021/08/17 05:16:47;;;;;;;;;;;;;;;21.15;52.90;101779.34;1588203;38;154010;-53
2021/08/17 05:18:19;;;;;;;;;;;;;;;21.17;53.00;101777.91;1592356;38;154299;-53
2021/08/17 05:19:51;;;;;;;;;;;;;;;21.18;52.95;101768.34;1588780;38;152188;-53
2021/08/17 05:21:23;;;;;;;;;;;;;;;21.22;52.77;101771.41;1588807;38;152246;-53
2021/08/17 05:22:56;;;;;;;;;;;;;;;21.23;52.93;101767.47;1587902;38;152306;-54
2021/08/17 05:24:28;;;;;;;;;;;;;;;21.23;53.24;101765.50;1586190;31;152511;-53
2021/08/17 05:26:00;;;;;;;;;;;;;;;21.26;53.18;101769.69;1587404;38;152260;-53
2021/08/17 05:27:32;;;;;;;;;;;;;;;21.27;53.55;101772.22;1587118;38;152454;-54
2021/08/17 05:29:04;;;;;;;;;;;;;;;21.29;53.62;101772.78;1587933;38;151924;-53
2021/08/17 05:30:37;;;;;;;;;;;;;;;21.30;53.33;101768.00;1588281;38;152130;-54
2021/08/17 05:32:09;;;;;;;;;;;;;;;21.33;53.41;101770.19;1587113;38;152003;-53
2021/08/17 05:33:41;;;;;;;;;;;;;;;21.35;53.45;101773.53;1588779;38;152187;-54
2021/08/17 05:35:13;;;;;;;;;;;;;;;21.39;53.71;101777.47;1588761;38;152317;-53
2021/08/17 05:36:45;;;;;;;;;;;;;;;21.41;53.50;101778.00;1587759;38;151911;-53
2021/08/17 05:38:17;;;;;;;;;;;;;;;21.43;53.44;101778.56;1587017;38;152239;-53
2021/08/17 05:39:53;;;;;;;;;;;;;;;21.46;53.66;101777.13;1589236;38;152584;-53
2021/08/17 05:41:25;;;;;;;;;;;;;;;21.50;53.52;101769.75;1591647;38;152275;-53
2021/08/17 05:42:57;;;;;;;;;;;;;;;21.53;53.71;101772.00;1588041;38;154060;-53
2021/08/17 05:44:29;;;;;;;;;;;;;;;21.56;53.36;101765.78;1586498;38;153669;-53
2021/08/17 05:46:03;;;;;;;;;;;;;;;21.59;53.45;101768.84;1588198;38;153667;-53
2021/08/17 05:47:40;;;;;;;;;;;;;;;21.63;53.42;101767.09;1589539;38;151852;-53
2021/08/17 05:49:13;;;;;;;;;;;;;;;21.66;53.35;101774.97;1587760;38;153347;-53
2021/08/17 05:50:45;;;;;;;;;;;;;;;21.70;53.28;101786.47;1588475;38;152749;-53
2021/08/17 05:52:17;;;;;;;;;;;;;;;21.74;53.50;101781.91;1589075;30;153498;-53
2021/08/17 05:53:49;;;;;;;;;;;;;;;21.77;53.20;101780.47;1588750;30;153011;-53
2021/08/17 05:55:21;;;;;;;;;;;;;;;21.81;53.33;101776.78;1585816;38;153474;-53
2021/08/17 05:56:56;;;;;;;;;;;;;;;21.84;53.16;101775.34;1588130;38;153185;-53
2021/08/17 05:58:28;;;;;;;;;;;;;;;21.87;53.07;101780.38;1589278;38;153152;-53
2021/08/17 06:00:00;;;;;;;;;;;;;;;21.91;53.35;101779.47;1588298;38;152696;-53
2021/08/17 06:01:33;;;;;;;;;;;;;;;21.95;53.35;101776.94;1588208;38;153479;-53
2021/08/17 06:03:05;;;;;;;;;;;;;;;21.97;53.22;101781.16;1589517;38;153512;-53
2021/08/17 06:04:38;;;;;;;;;;;;;;;22.01;53.23;101775.75;1588238;38;153713;-53
2021/08/17 06:06:10;;;;;;;;;;;;;;;22.04;53.29;101776.00;1586249;38;154110;-53
2021/08/17 06:07:44;;;;;;;;;;;;;;;22.08;52.81;101779.03;1588956;38;153921;-53
2021/08/17 06:09:19;;;;;;;;;;;;;;;22.11;52.74;101781.28;1588636;38;154252;-53
2021/08/17 06:10:51;;;;;;;;;;;;;;;22.14;52.70;101784.31;1587507;38;153497;-53
2021/08/17 06:12:23;;;;;;;;;;;;;;;22.17;52.95;101782.88;1589515;30;154300;-52
2021/08/17 06:13:55;;;;;;;;;;;;;;;22.21;53.01;101783.13;1586815;38;153447;-53
2021/08/17 06:15:29;;;;;;;;;;;;;;;22.25;53.08;101792.66;1587967;38;155630;-53
2021/08/17 06:17:02;;;;;;;;;;;;;;;22.27;52.70;101785.56;1587884;38;153538;-53
2021/08/17 06:18:35;;;;;;;;;;;;;;;22.31;52.48;101780.19;1589482;30;152454;-52
2021/08/17 06:20:10;;;;;;;;;;;;;;;22.34;52.58;101791.69;1587900;38;153427;-53
2021/08/17 06:21:43;;;;;;;;;;;;;;;22.37;52.42;101785.47;1588747;38;154456;-53
2021/08/17 06:23:15;;;;;;;;;;;;;;;22.40;52.22;101778.38;1588198;38;153699;-53
2021/08/17 06:24:48;;;;;;;;;;;;;;;22.43;52.22;101772.16;1589597;38;153145;-53
2021/08/17 06:26:20;;;;;;;;;;;;;;;22.46;52.48;101772.38;1589024;38;151985;-53
2021/08/17 06:27:52;;;;;;;;;;;;;;;22.49;52.52;101783.03;1588876;30;153438;-54
2021/08/17 06:29:26;;;;;;;;;;;;;;;22.52;52.38;101770.34;1588758;38;151851;-53
2021/08/17 06:31:00;;;;;;;;;;;;;;;22.56;51.87;101765.78;1589956;38;152157;-52
2021/08/17 06:32:34;;;;;;;;;;;;;;;22.59;52.02;101779.25;1589567;38;151876;-53
2021/08/17 06:34:06;;;;;;;;;;;;;;;22.62;52.12;101767.41;1589720;38;152151;-53
2021/08/17 06:35:39;;;;;;;;;;;;;;;22.65;52.03;101768.75;1589150;38;152273;-54
2021/08/17 06:37:12;;;;;;;;;;;;;;;22.68;51.90;101774.63;1589507;38;152102;-53
2021/08/17 06:38:44;;;;;;;;;;;;;;;22.72;51.64;101769.25;1587208;38;153282;-56
2021/08/17 06:40:17;;;;;;;;;;;;;;;22.74;51.55;101773.44;1587823;38;152215;-53
2021/08/17 06:41:54;;;;;;;;;;;;;;;22.77;51.65;101781.28;1586379;38;151993;-53
2021/08/17 06:43:29;;;;;;;;;;;;;;;22.79;51.38;101784.66;1588628;30;152450;-53
2021/08/17 06:45:03;;;;;;;;;;;;;;;22.82;51.61;101780.38;1589777;38;151797;-54
2021/08/17 06:46:35;;;;;;;;;;;;;;;22.84;51.52;101776.13;1591934;38;151859;-53
2021/08/17 06:48:08;;;;;;;;;;;;;;;22.88;51.43;101773.53;1587694;30;152693;-53
2021/08/17 06:49:46;;;;;;;;;;;;;;;22.91;51.14;101772.91;1587098;38;153059;-53
2021/08/17 06:51:19;;;;;;;;;;;;;;;22.94;51.47;101777.97;1588605;38;152735;-53
2021/08/17 06:52:51;;;;;;;;;;;;;;;22.97;51.48;101780.16;1588009;38;153770;-53
2021/08/17 06:54:25;;;;;;;;;;;;;;;22.99;51.29;101772.22;1588329;38;153245;-53
2021/08/17 06:55:58;;;;;;;;;;;;;;;23.01;51.50;101769.94;1589562;38;152831;-53
2021/08/17 06:57:30;;;;;;;;;;;;;;;23.04;51.06;101774.97;1588932;38;152752;-53
2021/08/17 06:59:03;;;;;;;;;;;;;;;23.07;51.44;101779.16;1589273;38;153707;-52
2021/08/17 07:00:35;;;;;;;;;;;;;;;23.09;51.28;101780.53;1586153;38;153452;-53
2021/08/17 07:02:08;;;;;;;;;;;;;;;23.12;51.24;101771.47;1589539;38;153719;-53
2021/08/17 07:03:43;;;;;;;;;;;;;;;23.15;51.20;101773.69;1587943;38;153087;-53
2021/08/17 07:05:20;;;;;;;;;;;;;;;23.17;50.94;101767.75;1587524;30;152510;-52
2021/08/17 07:06:53;;;;;;;;;;;;;;;23.19;50.89;101769.09;1588936;38;153341;-53
2021/08/17 07:08:26;;;;;;;;;;;;;;;23.23;50.96;101775.78;1591592;30;153241;-52
2021/08/17 07:10:02;;;;;;;;;;;;;;;23.26;51.23;101768.72;1587888;38;154039;-53
2021/08/17 07:11:36;;;;;;;;;;;;;;;23.28;51.07;101778.53;1587559;38;155723;-52
2021/08/17 07:13:08;;;;;;;;;;;;;;;23.29;51.37;101771.75;1587775;38;154923;-53
2021/08/17 07:14:41;;;;;;;;;;;;;;;23.33;51.32;101784.09;1588309;38;154736;-53
2021/08/17 07:16:13;;;;;;;;;;;;;;;23.34;50.96;101780.13;1588891;38;153725;-53
2021/08/17 07:17:46;;;;;;;;;;;;;;;23.37;51.00;101776.69;1589139;38;154311;-53
2021/08/17 07:19:18;;;;;;;;;;;;;;;23.40;51.22;101780.88;1589059;38;153790;-53
2021/08/17 07:20:53;;;;;;;;;;;;;;;23.42;51.20;101778.59;1587419;38;152793;-53
2021/08/17 07:22:30;;;;;;;;;;;;;;;23.44;51.24;101779.97;1586957;38;152538;-53
2021/08/17 07:24:10;;;;;;;;;;;;;;;23.46;50.87;101788.97;1588667;38;152649;-53
2021/08/17 07:25:43;;;;;;;;;;;;;;;23.48;50.89;101785.84;1587492;38;154157;-53
2021/08/17 07:27:15;;;;;;;;;;;;;;;23.51;50.84;101785.22;1588175;38;153290;-53
2021/08/17 07:28:48;;;;;;;;;;;;;;;23.53;50.77;101793.41;1585971;38;154267;-55
2021/08/17 07:30:20;;;;;;;;;;;;;;;23.55;50.94;101794.75;1589769;38;154078;-53
2021/08/17 07:31:53;;;;;;;;;;;;;;;23.56;50.52;101793.63;1589859;38;153635;-53
2021/08/17 07:33:25;;;;;;;;;;;;;;;23.57;50.66;101802.91;1588780;30;151786;-53
2021/08/17 07:34:59;;;;;;;;;;;;;;;23.59;50.51;101790.16;1588781;38;153879;-53
2021/08/17 07:36:35;;;;;;;;;;;;;;;23.60;50.49;101794.66;1588289;38;152685;-53
2021/08/17 07:38:08;;;;;;;;;;;;;;;23.61;50.53;101792.69;1588668;38;153127;-53
2021/08/17 07:39:41;;;;;;;;;;;;;;;23.63;50.71;101790.38;1589426;38;152161;-53
2021/08/17 07:41:13;;;;;;;;;;;;;;;23.64;50.47;101786.41;1587437;38;152427;-53
2021/08/17 07:42:47;;;;;;;;;;;;;;;23.65;50.49;101790.91;1586858;38;152323;-53
2021/08/17 07:44:20;;;;;;;;;;;;;;;23.66;51.04;101790.63;1588990;38;152279;-53
2021/08/17 07:45:53;;;;;;;;;;;;;;;23.69;51.05;101789.16;1588105;38;153115;-53
2021/08/17 07:47:46;;;;;;;;;;;;;;;23.68;51.04;101782.66;1587700;38;153170;-53
2021/08/17 07:49:18;;;;;;;;;;;;;;;23.70;50.82;101779.53;1587084;38;151885;-53
2021/08/17 07:51:19;;;;;;;;;;;;;;;23.70;50.63;101786.03;1589312;30;152066;-53